Time;durP1;ratioP1;P1;durP2;ratioP2;P2;SDS_P1;SDS_P2;PMS_P1;PMS_P2;Temp;Humidity;BMP_temperature;BMP_pressure;BME280_temperature;BME280_humidity;BME280_pressure;Samples;Min_cycle;Max_cycle;Signal;HPM_P1;HPM_P2
2022/07/13 00:00:21;;;;;;;2.85;1.50;;;;;;;;;;5019027;28;20033;-81
2022/07/13 00:02:46;;;;;;;3.00;1.63;;;;;;;;;;5000850;28;20023;-80
2022/07/13 00:05:11;;;;;;;1.92;1.42;;;;;;;;;;4989868;28;20038;-80
2022/07/13 00:07:37;;;;;;;1.45;1.35;;;;;;;;;;5004307;28;20034;-80
2022/07/13 00:10:03;;;;;;;1.63;1.27;;;;;;;;;;5008863;28;20025;-81
2022/07/13 00:12:29;;;;;;;1.17;1.15;;;;;;;;;;5015535;28;20033;-80
2022/07/13 00:14:54;;;;;;;2.67;1.45;;;;;;;;;;5011578;28;20090;-80
2022/07/13 00:17:19;;;;;;;2.30;1.60;;;;;;;;;;4997645;28;20033;-80
2022/07/13 00:19:45;;;;;;;3.08;1.63;;;;;;;;;;5012869;28;20041;-80
2022/07/13 00:22:10;;;;;;;1.88;1.42;;;;;;;;;;5017281;28;20503;-80
2022/07/13 00:24:36;;;;;;;3.53;1.55;;;;;;;;;;5025017;28;20036;-81
2022/07/13 00:27:01;;;;;;;2.15;1.52;;;;;;;;;;5006648;28;20030;-80
2022/07/13 00:29:26;;;;;;;3.97;1.45;;;;;;;;;;5011333;28;20088;-80
2022/07/13 00:31:52;;;;;;;3.38;1.30;;;;;;;;;;5022799;28;20029;-81
2022/07/13 00:34:17;;;;;;;2.10;1.20;;;;;;;;;;5012589;28;20029;-81
2022/07/13 00:36:42;;;;;;;1.50;1.30;;;;;;;;;;5009853;28;20045;-81
2022/07/13 00:39:08;;;;;;;2.55;1.45;;;;;;;;;;5013170;28;20030;-80
2022/07/13 00:41:33;;;;;;;1.88;1.23;;;;;;;;;;5016732;28;20029;-80
2022/07/13 00:44:08;;;;;;;2.08;1.50;;;;;;;;;;5010917;28;20089;-80
2022/07/13 00:46:35;;;;;;;1.63;1.38;;;;;;;;;;5010556;28;20061;-80
2022/07/13 00:49:01;;;;;;;1.50;1.27;;;;;;;;;;4991176;28;20026;-80
2022/07/13 00:51:27;;;;;;;1.40;1.30;;;;;;;;;;5011960;28;20044;-80
2022/07/13 00:53:52;;;;;;;1.90;1.52;;;;;;;;;;5011351;28;20058;-79
2022/07/13 00:56:18;;;;;;;1.80;1.50;;;;;;;;;;5024460;28;20083;-79
2022/07/13 00:58:44;;;;;;;1.30;1.20;;;;;;;;;;4994571;28;20404;-80
2022/07/13 01:01:10;;;;;;;2.53;1.67;;;;;;;;;;5023885;28;20033;-80
2022/07/13 01:03:35;;;;;;;2.58;1.77;;;;;;;;;;5020803;28;20026;-80
2022/07/13 01:06:01;;;;;;;2.63;1.23;;;;;;;;;;5025402;28;20079;-80
2022/07/13 01:08:27;;;;;;;2.20;1.60;;;;;;;;;;5006626;28;20659;-80
2022/07/13 01:10:53;;;;;;;1.88;1.63;;;;;;;;;;5017796;28;20400;-80
2022/07/13 01:13:19;;;;;;;4.55;1.50;;;;;;;;;;5015565;28;20036;-79
2022/07/13 01:15:44;;;;;;;1.20;1.10;;;;;;;;;;4999264;28;20053;-79
2022/07/13 01:18:12;;;;;;;4.72;1.90;;;;;;;;;;5012362;28;20030;-80
2022/07/13 01:20:42;;;;;;;1.73;1.63;;;;;;;;;;5010752;28;20018;-80
2022/07/13 01:23:09;;;;;;;2.65;1.50;;;;;;;;;;5028728;28;20028;-80
2022/07/13 01:25:35;;;;;;;1.60;1.48;;;;;;;;;;5029750;28;20025;-80
2022/07/13 01:28:00;;;;;;;2.35;1.40;;;;;;;;;;5002063;28;20188;-80
2022/07/13 01:30:26;;;;;;;1.40;1.20;;;;;;;;;;5027450;28;20037;-80
2022/07/13 01:32:51;;;;;;;2.28;1.50;;;;;;;;;;5013036;28;20017;-80
2022/07/13 01:35:18;;;;;;;2.63;1.63;;;;;;;;;;5033414;28;20026;-80
2022/07/13 01:37:44;;;;;;;3.88;1.40;;;;;;;;;;4998602;28;20412;-80
2022/07/13 01:40:10;;;;;;;1.80;1.40;;;;;;;;;;5022068;28;20021;-81
2022/07/13 01:42:48;;;;;;;5.13;1.60;;;;;;;;;;4998010;28;20021;-80
2022/07/13 01:45:15;;;;;;;1.48;1.38;;;;;;;;;;5016476;28;20025;-80
2022/07/13 01:47:43;;;;;;;2.40;1.60;;;;;;;;;;4990573;28;20037;-80
2022/07/13 01:50:11;;;;;;;2.17;1.52;;;;;;;;;;5018087;28;20025;-80
2022/07/13 01:52:37;;;;;;;2.47;1.40;;;;;;;;;;5021656;28;20040;-80
2022/07/13 01:55:07;;;;;;;4.35;1.77;;;;;;;;;;5005375;28;20037;-80
2022/07/13 01:57:33;;;;;;;3.40;1.65;;;;;;;;;;5012558;28;20069;-80
2022/07/13 02:00:00;;;;;;;3.30;1.40;;;;;;;;;;5020677;28;20013;-80
2022/07/13 02:02:25;;;;;;;3.00;1.60;;;;;;;;;;5033123;28;20547;-80
2022/07/13 02:04:50;;;;;;;4.88;1.88;;;;;;;;;;5022810;28;20022;-80
2022/07/13 02:07:16;;;;;;;1.60;1.50;;;;;;;;;;5013836;28;20026;-80
2022/07/13 02:09:41;;;;;;;1.48;1.30;;;;;;;;;;5017137;28;20033;-80
2022/07/13 02:12:07;;;;;;;4.30;1.40;;;;;;;;;;5018135;28;20045;-80
2022/07/13 02:14:32;;;;;;;2.65;1.70;;;;;;;;;;5032828;28;20049;-81
2022/07/13 02:16:58;;;;;;;2.63;1.90;;;;;;;;;;5019267;28;20033;-81
2022/07/13 02:19:23;;;;;;;4.07;1.73;;;;;;;;;;5017631;28;20052;-80
2022/07/13 02:21:49;;;;;;;2.40;1.70;;;;;;;;;;5024091;28;20025;-80
2022/07/13 02:24:14;;;;;;;1.40;1.30;;;;;;;;;;5042916;28;20021;-80
2022/07/13 02:26:39;;;;;;;2.08;1.35;;;;;;;;;;4999178;28;20022;-80
2022/07/13 02:29:05;;;;;;;2.17;1.33;;;;;;;;;;5011675;28;20023;-80
2022/07/13 02:31:33;;;;;;;1.83;1.40;;;;;;;;;;5004570;28;20112;-81
2022/07/13 02:33:59;;;;;;;3.88;1.52;;;;;;;;;;5000118;28;20030;-81
2022/07/13 02:36:25;;;;;;;1.42;1.20;;;;;;;;;;5027335;28;20479;-81
2022/07/13 02:38:50;;;;;;;1.58;1.33;;;;;;;;;;5015168;28;20036;-81
2022/07/13 02:41:15;;;;;;;1.67;1.33;;;;;;;;;;5026198;28;20356;-81
2022/07/13 02:43:41;;;;;;;2.70;1.38;;;;;;;;;;5028346;28;20018;-81
2022/07/13 02:46:06;;;;;;;2.55;1.40;;;;;;;;;;5017360;28;20030;-81
2022/07/13 02:48:33;;;;;;;2.47;1.30;;;;;;;;;;5013374;28;20026;-80
2022/07/13 02:50:58;;;;;;;1.88;1.38;;;;;;;;;;5028095;28;20082;-80
2022/07/13 02:53:24;;;;;;;2.90;1.90;;;;;;;;;;5024688;28;20026;-80
2022/07/13 02:55:49;;;;;;;1.55;1.30;;;;;;;;;;5026926;28;20020;-80
2022/07/13 02:58:14;;;;;;;3.88;1.42;;;;;;;;;;5010843;28;20094;-80
2022/07/13 03:00:40;;;;;;;1.77;1.30;;;;;;;;;;5024989;28;20415;-80
2022/07/13 03:03:05;;;;;;;1.63;1.20;;;;;;;;;;5013930;28;20041;-80
2022/07/13 03:05:31;;;;;;;1.85;1.40;;;;;;;;;;5020981;28;20030;-80
2022/07/13 03:07:56;;;;;;;4.18;1.67;;;;;;;;;;5005630;28;20105;-80
2022/07/13 03:10:21;;;;;;;3.00;1.50;;;;;;;;;;5013840;28;20026;-80
2022/07/13 03:12:47;;;;;;;1.30;1.20;;;;;;;;;;5023486;28;20086;-80
2022/07/13 03:15:12;;;;;;;2.10;1.13;;;;;;;;;;5018870;28;20037;-81
2022/07/13 03:17:40;;;;;;;2.25;1.40;;;;;;;;;;5011942;28;20391;-81
2022/07/13 03:20:07;;;;;;;1.40;1.25;;;;;;;;;;5015508;28;20029;-81
2022/07/13 03:22:32;;;;;;;3.33;1.45;;;;;;;;;;5017779;28;20299;-81
2022/07/13 03:24:58;;;;;;;1.60;1.33;;;;;;;;;;5035976;28;20025;-80
2022/07/13 03:27:23;;;;;;;2.55;1.40;;;;;;;;;;5040269;28;20018;-80
2022/07/13 03:29:48;;;;;;;2.00;1.60;;;;;;;;;;5030374;28;20022;-79
2022/07/13 03:32:14;;;;;;;2.58;1.75;;;;;;;;;;5032597;28;20022;-79
2022/07/13 03:34:40;;;;;;;1.90;1.10;;;;;;;;;;5046845;28;20025;-79
2022/07/13 03:37:06;;;;;;;4.18;1.60;;;;;;;;;;5016219;28;20045;-80
2022/07/13 03:39:31;;;;;;;2.88;1.40;;;;;;;;;;5012979;28;20022;-81
2022/07/13 03:41:57;;;;;;;1.70;1.38;;;;;;;;;;5012589;28;20026;-81
2022/07/13 03:44:22;;;;;;;2.33;1.40;;;;;;;;;;5021493;28;20021;-80
2022/07/13 03:46:47;;;;;;;5.50;1.35;;;;;;;;;;5014764;28;20030;-80
2022/07/13 03:49:13;;;;;;;1.50;1.40;;;;;;;;;;5022093;28;20034;-80
2022/07/13 03:51:40;;;;;;;2.53;1.50;;;;;;;;;;5018996;28;20547;-80
2022/07/13 03:54:06;;;;;;;3.78;1.40;;;;;;;;;;5019820;28;20384;-80
2022/07/13 03:56:31;;;;;;;1.75;1.65;;;;;;;;;;5019068;28;20064;-80
2022/07/13 03:58:57;;;;;;;1.45;1.35;;;;;;;;;;5019957;28;20026;-80
2022/07/13 04:01:23;;;;;;;1.77;1.38;;;;;;;;;;5017914;28;20030;-80
2022/07/13 04:03:49;;;;;;;1.55;1.45;;;;;;;;;;5021614;28;20051;-80
2022/07/13 04:06:14;;;;;;;3.75;1.50;;;;;;;;;;5006391;28;20460;-80
2022/07/13 04:08:39;;;;;;;2.28;1.50;;;;;;;;;;5015672;28;20034;-79
2022/07/13 04:11:05;;;;;;;1.88;1.50;;;;;;;;;;4999277;28;20113;-80
2022/07/13 04:13:30;;;;;;;2.15;1.50;;;;;;;;;;5034472;28;20437;-80
2022/07/13 04:15:56;;;;;;;3.90;1.30;;;;;;;;;;5029942;28;20021;-80
2022/07/13 04:18:21;;;;;;;3.42;1.75;;;;;;;;;;4989145;28;20057;-80
2022/07/13 04:20:46;;;;;;;3.35;1.60;;;;;;;;;;5016428;28;20021;-80
2022/07/13 04:23:12;;;;;;;1.92;1.45;;;;;;;;;;5016718;28;20014;-80
2022/07/13 04:25:37;;;;;;;3.08;1.60;;;;;;;;;;5024573;28;20030;-80
2022/07/13 04:28:03;;;;;;;3.38;1.85;;;;;;;;;;5015145;28;20026;-80
2022/07/13 04:30:28;;;;;;;3.75;1.88;;;;;;;;;;5018948;28;20036;-80
2022/07/13 04:32:54;;;;;;;2.20;1.60;;;;;;;;;;4991983;28;20036;-80
2022/07/13 04:35:19;;;;;;;3.53;1.70;;;;;;;;;;5016001;28;20524;-80
2022/07/13 04:37:45;;;;;;;1.42;1.27;;;;;;;;;;5020370;28;20045;-80
2022/07/13 04:40:11;;;;;;;5.93;1.85;;;;;;;;;;5002494;28;20110;-79
2022/07/13 04:42:36;;;;;;;2.00;1.40;;;;;;;;;;5028813;28;20157;-80
2022/07/13 04:45:02;;;;;;;1.95;1.42;;;;;;;;;;5018656;28;20030;-80
2022/07/13 04:47:27;;;;;;;3.70;1.60;;;;;;;;;;5025110;28;20101;-80
2022/07/13 04:49:53;;;;;;;2.50;1.65;;;;;;;;;;4997117;28;20049;-80
2022/07/13 04:52:18;;;;;;;3.75;1.70;;;;;;;;;;5008043;28;20030;-80
2022/07/13 05:01:08;;;;;;;2.63;1.80;;;;;;;;;;5218921;23;20113;-81
2022/07/13 05:03:37;;;;;;;2.00;1.77;;;;;;;;;;4985644;28;20401;-80
2022/07/13 05:06:02;;;;;;;3.92;2.22;;;;;;;;;;4985038;28;20046;-80
2022/07/13 05:08:27;;;;;;;5.93;1.80;;;;;;;;;;4967418;28;20508;-81
2022/07/13 05:10:53;;;;;;;6.70;2.45;;;;;;;;;;4987132;28;20030;-81
2022/07/13 05:13:19;;;;;;;2.42;1.70;;;;;;;;;;4992730;28;20018;-82
2022/07/13 05:15:45;;;;;;;4.47;2.00;;;;;;;;;;4989202;28;20030;-79
2022/07/13 05:18:11;;;;;;;3.83;2.33;;;;;;;;;;4972201;28;20426;-79
2022/07/13 05:20:36;;;;;;;2.28;1.73;;;;;;;;;;4990653;28;20059;-80
2022/07/13 05:23:01;;;;;;;3.25;1.60;;;;;;;;;;4982568;28;20046;-79
2022/07/13 05:25:27;;;;;;;2.63;2.05;;;;;;;;;;4992312;28;20042;-79
2022/07/13 05:27:52;;;;;;;2.47;1.60;;;;;;;;;;4991968;28;20022;-79
2022/07/13 05:30:17;;;;;;;2.08;1.50;;;;;;;;;;4999263;28;20027;-79
2022/07/13 05:32:43;;;;;;;2.45;1.40;;;;;;;;;;4971424;28;20026;-82
2022/07/13 05:35:08;;;;;;;2.20;1.55;;;;;;;;;;4974900;28;20082;-80
2022/07/13 05:37:33;;;;;;;3.72;1.65;;;;;;;;;;4988754;28;20030;-81
2022/07/13 05:39:59;;;;;;;4.03;1.42;;;;;;;;;;4980534;28;20030;-81
2022/07/13 05:42:26;;;;;;;3.38;1.30;;;;;;;;;;4983656;28;20316;-81
2022/07/13 05:44:51;;;;;;;3.65;1.58;;;;;;;;;;4983893;28;20022;-80
2022/07/13 05:47:17;;;;;;;2.67;1.75;;;;;;;;;;4990393;28;20030;-81
2022/07/13 05:49:42;;;;;;;6.55;1.77;;;;;;;;;;4985926;28;20050;-80
2022/07/13 05:52:07;;;;;;;5.55;1.60;;;;;;;;;;4972196;28;20032;-81
2022/07/13 05:54:33;;;;;;;6.13;1.70;;;;;;;;;;4994226;28;20031;-81
2022/07/13 05:56:58;;;;;;;2.00;1.42;;;;;;;;;;4983569;28;20035;-80
2022/07/13 05:59:23;;;;;;;8.48;1.80;;;;;;;;;;4983826;28;20035;-79
2022/07/13 06:01:49;;;;;;;2.67;1.88;;;;;;;;;;4983994;28;20022;-78
2022/07/13 06:04:16;;;;;;;2.40;1.55;;;;;;;;;;4997791;28;20026;-78
2022/07/13 06:06:42;;;;;;;2.35;1.80;;;;;;;;;;4981349;28;20031;-79
2022/07/13 06:09:07;;;;;;;4.32;1.92;;;;;;;;;;4986284;28;20030;-79
2022/07/13 06:11:32;;;;;;;6.20;1.73;;;;;;;;;;4985914;28;20027;-80
2022/07/13 06:13:58;;;;;;;4.93;1.65;;;;;;;;;;4975343;28;20396;-80
2022/07/13 06:16:23;;;;;;;9.40;1.95;;;;;;;;;;4978581;28;20030;-79
2022/07/13 06:18:48;;;;;;;2.60;2.00;;;;;;;;;;4982370;28;20026;-79
2022/07/13 06:21:14;;;;;;;3.60;2.00;;;;;;;;;;4981676;28;20023;-79
2022/07/13 06:23:39;;;;;;;5.63;1.83;;;;;;;;;;4986640;28;20083;-79
2022/07/13 06:26:04;;;;;;;3.40;1.95;;;;;;;;;;4976784;28;20031;-79
2022/07/13 06:28:30;;;;;;;5.88;2.08;;;;;;;;;;4976241;28;20039;-79
2022/07/13 06:30:55;;;;;;;3.95;1.85;;;;;;;;;;4953429;28;20042;-79
2022/07/13 06:33:20;;;;;;;3.60;1.63;;;;;;;;;;4981822;28;20030;-79
2022/07/13 06:35:46;;;;;;;2.78;1.83;;;;;;;;;;4979115;28;20065;-79
2022/07/13 06:38:11;;;;;;;15.80;2.20;;;;;;;;;;4979911;28;20031;-79
2022/07/13 06:40:37;;;;;;;4.80;1.60;;;;;;;;;;4983532;28;20492;-79
2022/07/13 06:43:02;;;;;;;3.15;1.80;;;;;;;;;;4982157;28;20014;-79
2022/07/13 06:45:29;;;;;;;5.60;1.50;;;;;;;;;;4970595;28;20035;-78
2022/07/13 06:47:54;;;;;;;3.33;1.50;;;;;;;;;;4969160;28;20621;-79
2022/07/13 06:50:20;;;;;;;4.13;1.38;;;;;;;;;;4975446;28;20037;-79
2022/07/13 06:52:45;;;;;;;4.85;1.55;;;;;;;;;;4977123;28;20037;-78
2022/07/13 06:55:11;;;;;;;4.82;1.90;;;;;;;;;;4968444;28;20034;-80
2022/07/13 06:57:37;;;;;;;3.65;1.70;;;;;;;;;;4958394;28;20086;-79
2022/07/13 07:00:07;;;;;;;3.42;1.50;;;;;;;;;;4979203;28;20102;-79
2022/07/13 07:02:32;;;;;;;3.10;1.42;;;;;;;;;;4979962;28;20029;-78
2022/07/13 07:04:58;;;;;;;5.15;1.63;;;;;;;;;;4986218;28;20027;-79
2022/07/13 07:07:23;;;;;;;5.60;1.75;;;;;;;;;;4976997;28;20064;-79
2022/07/13 07:09:49;;;;;;;3.95;1.85;;;;;;;;;;4984170;28;20026;-80
2022/07/13 07:12:14;;;;;;;4.32;1.50;;;;;;;;;;4986820;28;20063;-80
2022/07/13 07:14:40;;;;;;;4.13;1.45;;;;;;;;;;4993891;28;20037;-80
2022/07/13 07:17:05;;;;;;;4.97;1.63;;;;;;;;;;4985258;28;20026;-81
2022/07/13 07:19:30;;;;;;;6.25;1.95;;;;;;;;;;4988705;28;20027;-81
2022/07/13 07:21:56;;;;;;;3.55;1.60;;;;;;;;;;4975038;28;20089;-79
2022/07/13 07:24:22;;;;;;;2.95;1.40;;;;;;;;;;4979081;28;20025;-79
2022/07/13 07:26:48;;;;;;;2.85;1.63;;;;;;;;;;4979648;28;20779;-80
2022/07/13 07:29:14;;;;;;;4.60;1.50;;;;;;;;;;4987870;28;20400;-81
2022/07/13 07:31:40;;;;;;;4.65;1.88;;;;;;;;;;4985010;28;20030;-81
2022/07/13 07:34:06;;;;;;;2.75;1.27;;;;;;;;;;4982961;28;20385;-80
2022/07/13 07:36:32;;;;;;;3.05;1.67;;;;;;;;;;4983074;28;20438;-81
2022/07/13 07:38:57;;;;;;;2.67;1.50;;;;;;;;;;4983004;28;20492;-81
2022/07/13 07:41:23;;;;;;;1.42;1.23;;;;;;;;;;4984803;28;20039;-81
2022/07/13 07:43:48;;;;;;;2.08;1.20;;;;;;;;;;4968159;28;20026;-81
2022/07/13 07:46:14;;;;;;;3.55;1.50;;;;;;;;;;4985243;28;20030;-81
2022/07/13 07:48:39;;;;;;;3.28;1.42;;;;;;;;;;4984354;28;20034;-81
2022/07/13 07:51:05;;;;;;;1.92;1.33;;;;;;;;;;4981430;28;20212;-80
2022/07/13 07:53:31;;;;;;;2.35;1.50;;;;;;;;;;4985164;28;20046;-81
2022/07/13 07:55:56;;;;;;;1.85;1.25;;;;;;;;;;4984463;28;20087;-81
2022/07/13 07:58:21;;;;;;;1.77;1.10;;;;;;;;;;4983083;28;20022;-81
2022/07/13 08:00:47;;;;;;;1.55;1.10;;;;;;;;;;4985431;28;20039;-81
2022/07/13 08:03:12;;;;;;;2.38;1.00;;;;;;;;;;4984432;28;20023;-81
2022/07/13 08:05:38;;;;;;;4.90;1.30;;;;;;;;;;4985656;28;20166;-81
2022/07/13 08:08:04;;;;;;;4.57;2.20;;;;;;;;;;4965124;28;20027;-80
2022/07/13 08:10:30;;;;;;;5.00;1.27;;;;;;;;;;4984343;28;20030;-80
2022/07/13 08:12:58;;;;;;;5.63;1.40;;;;;;;;;;4984418;28;20042;-81
2022/07/13 08:15:24;;;;;;;1.67;1.10;;;;;;;;;;4966048;28;20054;-80
2022/07/13 08:17:49;;;;;;;1.17;1.08;;;;;;;;;;4979230;28;20026;-80
2022/07/13 08:20:15;;;;;;;2.97;1.15;;;;;;;;;;4956481;28;20038;-81
2022/07/13 08:22:40;;;;;;;1.17;1.02;;;;;;;;;;4966303;28;20027;-81
2022/07/13 08:25:06;;;;;;;3.40;1.27;;;;;;;;;;4985602;28;20136;-81
2022/07/13 08:27:32;;;;;;;3.28;1.00;;;;;;;;;;4999028;28;20019;-81
2022/07/13 08:29:58;;;;;;;4.05;1.35;;;;;;;;;;4983674;28;20023;-81
2022/07/13 08:32:24;;;;;;;3.58;1.30;;;;;;;;;;4981551;28;20050;-81
2022/07/13 08:40:21;;;;;;;2.20;1.10;;;;;;;;;;4983643;28;20499;-83
2022/07/13 08:42:47;;;;;;;1.48;1.00;;;;;;;;;;4984423;28;20420;-81
2022/07/13 08:45:13;;;;;;;2.30;1.30;;;;;;;;;;4990222;28;20026;-81
2022/07/13 08:47:40;;;;;;;5.45;1.35;;;;;;;;;;4988946;28;20045;-81
2022/07/13 08:50:07;;;;;;;3.67;1.33;;;;;;;;;;4982983;28;20030;-81
2022/07/13 08:52:38;;;;;;;1.45;1.08;;;;;;;;;;4982710;28;20034;-81
2022/07/13 08:55:05;;;;;;;1.90;1.10;;;;;;;;;;4975307;28;20054;-81
2022/07/13 08:57:35;;;;;;;1.30;1.02;;;;;;;;;;4988121;28;20030;-81
2022/07/13 09:00:07;;;;;;;2.88;1.10;;;;;;;;;;4982861;28;20038;-81
2022/07/13 09:02:33;;;;;;;1.35;1.02;;;;;;;;;;4979768;28;20027;-81
2022/07/13 09:05:03;;;;;;;1.30;1.15;;;;;;;;;;4985771;28;20114;-81
2022/07/13 09:07:28;;;;;;;2.40;1.17;;;;;;;;;;4983418;28;20030;-82
2022/07/13 09:09:56;;;;;;;4.18;1.00;;;;;;;;;;4983778;28;20106;-81
2022/07/13 09:12:24;;;;;;;2.95;0.77;;;;;;;;;;4977185;28;20485;-81
2022/07/13 09:15:00;;;;;;;0.57;0.57;;;;;;;;;;4984567;28;20042;-79
2022/07/13 09:17:36;;;;;;;2.03;0.88;;;;;;;;;;4991999;28;20030;-79
2022/07/13 09:20:18;;;;;;;5.05;0.63;;;;;;;;;;4977684;28;20034;-79
2022/07/13 09:22:52;;;;;;;2.00;0.75;;;;;;;;;;4984838;28;20030;-79
2022/07/13 09:25:44;;;;;;;0.68;0.68;;;;;;;;;;4982927;28;20033;-79
2022/07/13 09:28:13;;;;;;;0.85;0.70;;;;;;;;;;4964242;28;20045;-79
2022/07/13 09:30:43;;;;;;;0.95;0.55;;;;;;;;;;4966068;28;20031;-79
2022/07/13 09:33:09;;;;;;;0.60;0.60;;;;;;;;;;4982424;28;20032;-80
2022/07/13 09:35:43;;;;;;;2.83;0.60;;;;;;;;;;4973061;28;20098;-80
2022/07/13 09:38:09;;;;;;;4.10;0.80;;;;;;;;;;4990503;28;20113;-79
2022/07/13 09:40:34;;;;;;;1.13;0.88;;;;;;;;;;4991871;28;20041;-81
2022/07/13 09:48:27;;;;;;;0.90;0.90;;;;;;;;;;4982127;28;20102;-80
2022/07/13 09:50:56;;;;;;;5.65;1.00;;;;;;;;;;4987380;28;20038;-81
2022/07/13 09:53:29;;;;;;;2.05;0.88;;;;;;;;;;4967959;28;20470;-80
2022/07/13 09:59:16;;;;;;;;;;;;;;;;;;4985829;28;20523;-81
2022/07/13 10:01:45;;;;;;;5.53;0.90;;;;;;;;;;4981378;28;20012;-80
2022/07/13 10:04:11;;;;;;;1.95;0.90;;;;;;;;;;4981367;28;20495;-81
2022/07/13 10:06:37;;;;;;;1.98;0.88;;;;;;;;;;4982248;28;20031;-81
2022/07/13 10:09:04;;;;;;;2.30;0.90;;;;;;;;;;4983319;28;20022;-81
2022/07/13 10:11:29;;;;;;;5.63;1.00;;;;;;;;;;4983004;28;20034;-81
2022/07/13 10:13:57;;;;;;;1.67;1.00;;;;;;;;;;4987752;28;20026;-82
2022/07/13 10:16:22;;;;;;;3.40;0.80;;;;;;;;;;4988148;28;20681;-82
2022/07/13 10:18:48;;;;;;;0.82;0.82;;;;;;;;;;4982082;28;20027;-81
2022/07/13 10:21:42;;;;;;;2.35;0.70;;;;;;;;;;4989271;28;20050;-81
2022/07/13 10:24:16;;;;;;;6.57;1.05;;;;;;;;;;4997047;28;20030;-81
2022/07/13 10:26:41;;;;;;;0.70;0.70;;;;;;;;;;4989448;28;20038;-81
2022/07/13 10:29:09;;;;;;;1.27;0.55;;;;;;;;;;4989182;28;20109;-81
2022/07/13 10:31:36;;;;;;;0.95;0.63;;;;;;;;;;4990304;28;20509;-81
2022/07/13 10:34:04;;;;;;;0.85;0.82;;;;;;;;;;4998664;28;20477;-80
2022/07/13 10:36:57;;;;;;;1.15;0.90;;;;;;;;;;5003591;28;20030;-80
2022/07/13 10:39:24;;;;;;;1.75;0.80;;;;;;;;;;4957088;28;20031;-80
2022/07/13 10:42:04;;;;;;;3.22;0.90;;;;;;;;;;5215418;23;20151;-80
2022/07/13 10:44:41;;;;;;;1.95;1.02;;;;;;;;;;4976441;28;20018;-80
2022/07/13 10:47:12;;;;;;;2.30;0.73;;;;;;;;;;4963221;28;20031;-80
2022/07/13 10:49:51;;;;;;;2.53;0.90;;;;;;;;;;4991265;28;20055;-80
2022/07/13 10:56:04;;;;;;;2.00;0.60;;;;;;;;;;4980104;28;20034;-80
2022/07/13 10:58:29;;;;;;;0.90;0.40;;;;;;;;;;4967577;28;20090;-80
2022/07/13 11:00:56;;;;;;;0.40;0.40;;;;;;;;;;4987636;28;20038;-80
2022/07/13 11:03:37;;;;;;;0.50;0.40;;;;;;;;;;4985960;28;20018;-81
2022/07/13 11:06:12;;;;;;;0.65;0.50;;;;;;;;;;4970133;28;20113;-82
2022/07/13 11:08:39;;;;;;;0.47;0.40;;;;;;;;;;4972811;28;20031;-81
2022/07/13 11:11:10;;;;;;;2.17;0.43;;;;;;;;;;4959311;28;20035;-82
2022/07/13 11:13:36;;;;;;;0.80;0.77;;;;;;;;;;4979675;28;20035;-83
2022/07/13 11:16:02;;;;;;;0.77;0.73;;;;;;;;;;4949626;28;20022;-83
2022/07/13 11:18:33;;;;;;;1.50;0.40;;;;;;;;;;4963487;28;20030;-82
2022/07/13 11:21:14;;;;;;;1.15;1.02;;;;;;;;;;4973618;28;20106;-81
2022/07/13 11:26:57;;;;;;;0.90;0.70;;;;;;;;;;4979313;28;20045;-80
2022/07/13 11:29:41;;;;;;;1.08;0.60;;;;;;;;;;4978302;28;20073;-81
2022/07/13 11:32:07;;;;;;;0.70;0.60;;;;;;;;;;4976600;28;20504;-82
2022/07/13 11:34:35;;;;;;;3.58;0.70;;;;;;;;;;4978917;28;20039;-81
2022/07/13 11:37:01;;;;;;;0.60;0.60;;;;;;;;;;4980511;28;20027;-81
2022/07/13 11:39:32;;;;;;;0.85;0.65;;;;;;;;;;4964265;28;20042;-81
2022/07/13 11:41:58;;;;;;;;;;;;;;;;;;4981749;28;20023;-83
2022/07/13 11:44:26;;;;;;;0.85;0.75;;;;;;;;;;4980821;28;19927;-83
2022/07/13 11:46:54;;;;;;;0.95;0.65;;;;;;;;;;4963817;28;20025;-82
2022/07/13 11:49:19;;;;;;;0.63;0.63;;;;;;;;;;4979850;28;20026;-82
2022/07/13 11:51:45;;;;;;;1.38;0.50;;;;;;;;;;4978417;28;20031;-83
2022/07/13 11:54:13;;;;;;;2.33;0.88;;;;;;;;;;4983745;28;20425;-82
2022/07/13 11:56:57;;;;;;;0.70;0.70;;;;;;;;;;4985892;28;20022;-82
2022/07/13 11:59:36;;;;;;;1.60;0.65;;;;;;;;;;4986908;28;20038;-82
2022/07/13 12:02:03;;;;;;;0.75;0.60;;;;;;;;;;4982218;28;20030;-82
2022/07/13 12:04:29;;;;;;;0.70;0.70;;;;;;;;;;4980862;28;20031;-82
2022/07/13 12:07:12;;;;;;;2.30;0.40;;;;;;;;;;4963715;28;20058;-83
2022/07/13 12:09:46;;;;;;;0.43;0.43;;;;;;;;;;4966642;28;20059;-83
2022/07/13 12:12:12;;;;;;;1.08;0.50;;;;;;;;;;4985007;28;20030;-82
2022/07/13 12:14:38;;;;;;;0.63;0.60;;;;;;;;;;4966764;28;20027;-83
2022/07/13 12:17:03;;;;;;;0.75;0.52;;;;;;;;;;4979235;28;20026;-82
2022/07/13 12:19:29;;;;;;;0.50;0.50;;;;;;;;;;4985409;28;20031;-83
2022/07/13 12:22:26;;;;;;;;;;;;;;;;;;;;;
2022/07/13 12:24:54;;;;;;;0.88;0.88;;;;;;;;;;5007686;28;20422;-83
2022/07/13 12:27:28;;;;;;;1.30;0.35;;;;;;;;;;5006428;28;20086;-82
2022/07/13 12:30:07;;;;;;;1.02;0.70;;;;;;;;;;5005527;28;20141;-82
2022/07/13 12:32:32;;;;;;;0.80;0.77;;;;;;;;;;4982160;28;20019;-82
2022/07/13 12:34:58;;;;;;;2.10;0.90;;;;;;;;;;4984770;28;20393;-82
2022/07/13 12:37:36;;;;;;;4.03;0.85;;;;;;;;;;4986929;28;20053;-82
2022/07/13 12:40:03;;;;;;;1.42;0.68;;;;;;;;;;4988366;28;20361;-82
2022/07/13 12:42:59;;;;;;;2.83;0.60;;;;;;;;;;4971289;28;20034;-81
2022/07/13 12:45:43;;;;;;;0.95;0.80;;;;;;;;;;4983813;28;20034;-80
2022/07/13 12:48:16;;;;;;;3.40;0.75;;;;;;;;;;4971966;28;20421;-81
2022/07/13 12:50:42;;;;;;;0.50;0.50;;;;;;;;;;4978904;28;20115;-81
2022/07/13 12:53:08;;;;;;;0.60;0.60;;;;;;;;;;4980427;28;20050;-81
2022/07/13 12:55:54;;;;;;;0.60;0.60;;;;;;;;;;4983130;28;20130;-81
2022/07/13 12:58:19;;;;;;;0.75;0.47;;;;;;;;;;4976328;28;20091;-81
2022/07/13 13:00:47;;;;;;;1.27;0.50;;;;;;;;;;4979425;28;20170;-81
2022/07/13 13:03:13;;;;;;;1.95;0.50;;;;;;;;;;4968802;28;20178;-82
2022/07/13 13:05:39;;;;;;;3.55;0.65;;;;;;;;;;4961054;28;20510;-81
2022/07/13 13:08:04;;;;;;;1.15;0.70;;;;;;;;;;4982055;28;20030;-81
2022/07/13 13:10:31;;;;;;;1.90;0.75;;;;;;;;;;4979232;28;20030;-84
2022/07/13 13:12:57;;;;;;;1.77;0.90;;;;;;;;;;4975369;28;20942;-85
2022/07/13 13:15:23;;;;;;;8.25;0.52;;;;;;;;;;4990729;28;20026;-85
2022/07/13 13:17:49;;;;;;;0.63;0.32;;;;;;;;;;4970643;28;20022;-85
2022/07/13 13:20:15;;;;;;;0.88;0.60;;;;;;;;;;4981282;28;20042;-85
2022/07/13 13:22:40;;;;;;;1.08;0.43;;;;;;;;;;4952718;28;20031;-85
2022/07/13 13:25:06;;;;;;;1.13;0.60;;;;;;;;;;4957175;28;20050;-85
2022/07/13 13:27:32;;;;;;;0.90;0.40;;;;;;;;;;4980492;28;20107;-85
2022/07/13 13:32:41;;;;;;;0.40;0.40;;;;;;;;;;4970629;28;20045;-85
2022/07/13 13:35:07;;;;;;;0.50;0.50;;;;;;;;;;4993151;28;20046;-85
2022/07/13 13:37:32;;;;;;;0.38;0.38;;;;;;;;;;4965441;28;20044;-85
2022/07/13 13:39:58;;;;;;;0.60;0.60;;;;;;;;;;4970996;28;20533;-85
2022/07/13 13:42:23;;;;;;;1.13;0.50;;;;;;;;;;4956849;28;20121;-85
2022/07/13 13:44:49;;;;;;;1.23;0.63;;;;;;;;;;4960911;28;20030;-85
2022/07/13 13:47:15;;;;;;;0.50;0.50;;;;;;;;;;4980733;28;20027;-85
2022/07/13 13:49:41;;;;;;;1.00;0.60;;;;;;;;;;4954692;28;20069;-85
2022/07/13 13:52:11;;;;;;;0.50;0.50;;;;;;;;;;4957130;28;20035;-85
2022/07/13 13:54:36;;;;;;;0.70;0.60;;;;;;;;;;4965295;28;20409;-86
2022/07/13 13:57:03;;;;;;;0.85;0.50;;;;;;;;;;4982560;28;20026;-85
2022/07/13 13:59:29;;;;;;;0.95;0.57;;;;;;;;;;4977950;28;20529;-85
2022/07/13 14:02:00;;;;;;;1.55;0.60;;;;;;;;;;4978900;28;20469;-85
2022/07/13 14:04:26;;;;;;;0.80;0.60;;;;;;;;;;4967544;28;20110;-85
2022/07/13 14:06:54;;;;;;;1.60;0.52;;;;;;;;;;4975506;28;20031;-85
2022/07/13 14:09:21;;;;;;;2.33;0.43;;;;;;;;;;4988285;28;20027;-86
2022/07/13 14:11:47;;;;;;;1.15;0.75;;;;;;;;;;4952385;28;20031;-86
2022/07/13 14:14:12;;;;;;;0.77;0.77;;;;;;;;;;4981733;28;20074;-86
2022/07/13 14:16:48;;;;;;;0.52;0.45;;;;;;;;;;4998417;28;20030;-86
2022/07/13 14:19:14;;;;;;;1.17;0.45;;;;;;;;;;4974792;28;20030;-85
2022/07/13 14:21:40;;;;;;;1.10;0.50;;;;;;;;;;4969442;28;20046;-85
2022/07/13 14:24:13;;;;;;;0.60;0.60;;;;;;;;;;4968027;28;20039;-86
2022/07/13 14:26:41;;;;;;;4.15;0.73;;;;;;;;;;4966555;28;20053;-85
2022/07/13 14:29:09;;;;;;;1.88;0.75;;;;;;;;;;4967805;28;20038;-85
2022/07/13 14:31:46;;;;;;;1.45;0.50;;;;;;;;;;4969590;28;20409;-86
2022/07/13 14:34:13;;;;;;;0.30;0.30;;;;;;;;;;4979500;28;20050;-85
2022/07/13 14:36:44;;;;;;;1.13;0.60;;;;;;;;;;4961676;28;20049;-85
2022/07/13 14:39:14;;;;;;;0.70;0.70;;;;;;;;;;4977147;28;20035;-85
2022/07/13 14:41:39;;;;;;;0.68;0.50;;;;;;;;;;4965832;28;20106;-85
2022/07/13 14:44:05;;;;;;;0.60;0.52;;;;;;;;;;4967556;28;20095;-85
2022/07/13 14:46:31;;;;;;;1.65;0.90;;;;;;;;;;4969308;28;20034;-85
2022/07/13 14:48:56;;;;;;;0.82;0.73;;;;;;;;;;4984524;28;20030;-85
2022/07/13 14:51:25;;;;;;;1.30;0.90;;;;;;;;;;4982416;28;20384;-85
2022/07/13 14:53:56;;;;;;;0.50;0.50;;;;;;;;;;4976607;28;20019;-85
2022/07/13 14:56:22;;;;;;;;;;;;;;;;;;4975889;28;20027;-85
2022/07/13 14:58:48;;;;;;;1.15;0.70;;;;;;;;;;4965753;28;19937;-85
2022/07/13 15:01:15;;;;;;;3.05;0.70;;;;;;;;;;4982144;28;20433;-86
2022/07/13 15:03:42;;;;;;;0.50;0.40;;;;;;;;;;4963777;28;20063;-86
2022/07/13 15:06:07;;;;;;;0.65;0.65;;;;;;;;;;4957505;28;20433;-86
2022/07/13 15:08:33;;;;;;;0.90;0.60;;;;;;;;;;4962980;28;20029;-86
2022/07/13 15:10:58;;;;;;;1.63;0.57;;;;;;;;;;4984593;28;20023;-86
2022/07/13 15:13:23;;;;;;;4.90;0.90;;;;;;;;;;4973762;28;20030;-81
2022/07/13 15:15:49;;;;;;;3.60;0.90;;;;;;;;;;4978740;28;20033;-81